This is the latest recevied weather packets stored in our database for station/object KE9ADS. If no packets are shown the sender has not sent any weather packets the latest 10 day(s).
| Time | Temp. | Humidity | Pressure | Rain* | Wind** | Luminosity | Snow |
|---|---|---|---|---|---|---|---|
| 1777743937 | 12.78° C | 33% | 1022.8 hPa | 0 mm | - | 650 W/m² | - |
| 1777743336 | 13.33° C | 34% | 1023.1 hPa | 0 mm | - | 896 W/m² | - |
| 1777742731 | 13.33° C | 34% | 1023.2 hPa | 0 mm | - | 226 W/m² | - |
| 1777742129 | 13.89° C | 34% | 1023.2 hPa | 0 mm | - | 470 W/m² | - |
| 1777741529 | 14.44° C | 32% | 1023 hPa | 0 mm | - | 253 W/m² | - |
| 1777740928 | 13.33° C | 35% | 1023.1 hPa | 0 mm | - | 503 W/m² | - |
| 1777740326 | 13.89° C | 33% | 1023.4 hPa | 0 mm | - | 203 W/m² | - |
| 1777739724 | 13.89° C | 33% | 1023.1 hPa | 0 mm | - | 231 W/m² | - |
| 1777739123 | 12.22° C | 36% | 1023.4 hPa | 0 mm | - | 739 W/m² | - |
| 1777738522 | 12.78° C | 35% | 1023.6 hPa | 0 mm | - | 293 W/m² | - |
| 1777737923 | 13.33° C | 37% | 1023.6 hPa | 0 mm | - | 401 W/m² | - |
| 1777737319 | 13.33° C | 38% | 1023.6 hPa | 0 mm | - | 319 W/m² | - |
| 1777736716 | 11.67° C | 40% | 1023.6 hPa | 0 mm | - | 757 W/m² | - |
| 1777735874 | 12.78° C | 36% | 1023.5 hPa | 0 mm | - | 140 W/m² | - |
| 1777735275 | 13.89° C | 32% | 1023.6 hPa | 0 mm | - | 638 W/m² | - |
| 1777734669 | 13.33° C | 40% | 1023.5 hPa | 0 mm | - | 556 W/m² | - |
| 1777734068 | 12.22° C | 41% | 1023.6 hPa | 0 mm | - | 576 W/m² | - |
| 1777733468 | 12.78° C | 42% | 1023.6 hPa | 0 mm | - | 542 W/m² | - |
| 1777732866 | 13.33° C | 39% | 1023.4 hPa | 0 mm | - | 506 W/m² | - |
| 1777732261 | 11.67° C | 53% | 1023.5 hPa | 0 mm | - | 479 W/m² | - |
| 1777731660 | 11.67° C | 51% | 1023.6 hPa | 0 mm | - | 454 W/m² | - |
| 1777731055 | 12.22° C | 54% | 1023.5 hPa | 0 mm | - | 417 W/m² | - |
| 1777730454 | 11.11° C | 59% | 1023.5 hPa | 0 mm | - | 381 W/m² | - |
| 1777729853 | 10.56° C | 60% | 1023.6 hPa | 0 mm | - | 354 W/m² | - |
| 1777729252 | 9.44° C | 63% | 1023.5 hPa | 0 mm | - | 318 W/m² | - |
* Rain latest hour (hover to see other rain measurements)
** Current wind speed in m/s (hover to see current wind gust speed)